sensor_id;sensor_type;location;lat;lon;timestamp;pressure;altitude;pressure_sealevel;temperature;humidity
75681;BME280;64294;49.176;16.626;2023-05-07T00:01:41;99435.16;;;10.68;100.00
75681;BME280;64294;49.176;16.626;2023-05-07T00:04:06;99429.53;;;10.68;100.00
75681;BME280;64294;49.176;16.626;2023-05-07T00:06:32;99429.91;;;10.58;100.00
75681;BME280;64294;49.176;16.626;2023-05-07T00:08:58;99432.06;;;10.52;100.00
75681;BME280;64294;49.176;16.626;2023-05-07T00:11:24;99429.03;;;10.50;100.00
75681;BME280;64294;49.176;16.626;2023-05-07T00:13:51;99435.41;;;10.51;100.00
75681;BME280;64294;49.176;16.626;2023-05-07T00:16:16;99432.38;;;10.49;100.00
75681;BME280;64294;49.176;16.626;2023-05-07T00:18:41;99429.03;;;10.50;100.00
75681;BME280;64294;49.176;16.626;2023-05-07T00:21:07;99429.25;;;10.52;100.00
75681;BME280;64294;49.176;16.626;2023-05-07T00:23:32;99427.44;;;10.55;100.00
75681;BME280;64294;49.176;16.626;2023-05-07T00:25:58;99432.28;;;10.54;100.00
75681;BME280;64294;49.176;16.626;2023-05-07T00:28:23;99430.16;;;10.60;100.00
75681;BME280;64294;49.176;16.626;2023-05-07T00:30:48;99433.81;;;10.55;100.00
75681;BME280;64294;49.176;16.626;2023-05-07T00:33:14;99432.50;;;10.56;100.00
75681;BME280;64294;49.176;16.626;2023-05-07T00:35:39;99426.88;;;10.56;100.00
75681;BME280;64294;49.176;16.626;2023-05-07T00:38:04;99426.59;;;10.60;100.00
75681;BME280;64294;49.176;16.626;2023-05-07T00:40:30;99421.84;;;10.68;100.00
75681;BME280;64294;49.176;16.626;2023-05-07T00:42:55;99424.88;;;10.70;100.00
75681;BME280;64294;49.176;16.626;2023-05-07T00:45:28;99432.66;;;10.64;100.00
75681;BME280;64294;49.176;16.626;2023-05-07T00:47:59;99420.44;;;10.61;100.00
75681;BME280;64294;49.176;16.626;2023-05-07T00:50:25;99424.31;;;10.58;100.00
75681;BME280;64294;49.176;16.626;2023-05-07T00:52:51;99421.28;;;10.56;100.00
75681;BME280;64294;49.176;16.626;2023-05-07T00:55:17;99417.47;;;10.54;100.00
75681;BME280;64294;49.176;16.626;2023-05-07T00:57:43;99424.63;;;10.55;100.00
75681;BME280;64294;49.176;16.626;2023-05-07T01:00:10;99419.53;;;10.53;100.00
75681;BME280;64294;49.176;16.626;2023-05-07T01:02:38;99421.28;;;10.56;100.00
75681;BME280;64294;49.176;16.626;2023-05-07T01:05:04;99419.00;;;10.55;100.00
75681;BME280;64294;49.176;16.626;2023-05-07T01:07:31;99414.13;;;10.55;100.00
75681;BME280;64294;49.176;16.626;2023-05-07T01:09:58;99420.81;;;10.52;100.00
75681;BME280;64294;49.176;16.626;2023-05-07T01:12:24;99423.41;;;10.50;100.00
75681;BME280;64294;49.176;16.626;2023-05-07T01:14:50;99428.59;;;10.46;100.00
75681;BME280;64294;49.176;16.626;2023-05-07T01:17:16;99424.03;;;10.43;100.00
75681;BME280;64294;49.176;16.626;2023-05-07T01:19:42;99419.72;;;10.42;100.00
75681;BME280;64294;49.176;16.626;2023-05-07T01:22:09;99422.53;;;10.42;100.00
75681;BME280;64294;49.176;16.626;2023-05-07T01:24:36;99411.03;;;10.40;100.00
75681;BME280;64294;49.176;16.626;2023-05-07T01:27:03;99426.25;;;10.31;100.00
75681;BME280;64294;49.176;16.626;2023-05-07T01:29:29;99427.09;;;10.26;100.00
75681;BME280;64294;49.176;16.626;2023-05-07T01:31:56;99429.38;;;10.28;100.00
75681;BME280;64294;49.176;16.626;2023-05-07T01:34:25;99428.31;;;10.31;100.00
75681;BME280;64294;49.176;16.626;2023-05-07T01:36:53;99438.13;;;10.24;100.00
75681;BME280;64294;49.176;16.626;2023-05-07T01:39:20;99435.00;;;10.28;100.00
75681;BME280;64294;49.176;16.626;2023-05-07T01:41:46;99430.19;;;10.42;100.00
75681;BME280;64294;49.176;16.626;2023-05-07T01:44:12;99422.91;;;10.33;100.00
75681;BME280;64294;49.176;16.626;2023-05-07T01:46:38;99427.53;;;10.30;100.00
75681;BME280;64294;49.176;16.626;2023-05-07T01:49:06;99425.50;;;10.31;100.00
75681;BME280;64294;49.176;16.626;2023-05-07T01:51:32;99425.28;;;10.29;100.00
75681;BME280;64294;49.176;16.626;2023-05-07T01:53:58;99432.94;;;10.28;100.00
75681;BME280;64294;49.176;16.626;2023-05-07T01:56:24;99433.47;;;10.27;100.00
75681;BME280;64294;49.176;16.626;2023-05-07T01:58:50;99432.63;;;10.32;100.00
75681;BME280;64294;49.176;16.626;2023-05-07T02:01:16;99440.53;;;10.34;100.00
75681;BME280;64294;49.176;16.626;2023-05-07T02:03:42;99444.09;;;10.34;100.00
75681;BME280;64294;49.176;16.626;2023-05-07T02:06:07;99448.19;;;10.33;100.00
75681;BME280;64294;49.176;16.626;2023-05-07T02:08:33;99448.28;;;10.27;100.00
75681;BME280;64294;49.176;16.626;2023-05-07T02:10:58;99453.97;;;10.22;100.00
75681;BME280;64294;49.176;16.626;2023-05-07T02:13:23;99451.97;;;10.17;100.00
75681;BME280;64294;49.176;16.626;2023-05-07T02:15:49;99452.59;;;10.10;100.00
75681;BME280;64294;49.176;16.626;2023-05-07T02:18:16;99448.84;;;10.01;100.00
75681;BME280;64294;49.176;16.626;2023-05-07T02:20:42;99460.47;;;9.92;100.00
75681;BME280;64294;49.176;16.626;2023-05-07T02:23:07;99461.13;;;9.80;100.00
75681;BME280;64294;49.176;16.626;2023-05-07T02:25:33;99463.53;;;9.70;100.00
75681;BME280;64294;49.176;16.626;2023-05-07T02:27:58;99465.41;;;9.62;100.00
75681;BME280;64294;49.176;16.626;2023-05-07T02:30:24;99459.09;;;9.56;100.00
75681;BME280;64294;49.176;16.626;2023-05-07T02:32:50;99457.34;;;9.53;100.00
75681;BME280;64294;49.176;16.626;2023-05-07T02:35:16;99461.25;;;9.44;100.00
75681;BME280;64294;49.176;16.626;2023-05-07T02:37:41;99468.69;;;9.41;100.00
75681;BME280;64294;49.176;16.626;2023-05-07T02:40:07;99458.06;;;9.34;100.00
75681;BME280;64294;49.176;16.626;2023-05-07T02:42:32;99460.91;;;9.29;100.00
75681;BME280;64294;49.176;16.626;2023-05-07T02:44:58;99456.31;;;9.31;100.00
75681;BME280;64294;49.176;16.626;2023-05-07T02:47:24;99458.81;;;9.35;100.00
75681;BME280;64294;49.176;16.626;2023-05-07T02:49:53;99464.13;;;9.38;100.00
75681;BME280;64294;49.176;16.626;2023-05-07T02:52:18;99457.94;;;9.46;100.00
75681;BME280;64294;49.176;16.626;2023-05-07T02:54:43;99460.69;;;9.51;100.00
75681;BME280;64294;49.176;16.626;2023-05-07T02:57:09;99464.72;;;9.56;100.00
75681;BME280;64294;49.176;16.626;2023-05-07T02:59:34;99455.00;;;9.57;100.00
75681;BME280;64294;49.176;16.626;2023-05-07T03:01:59;99460.63;;;9.57;100.00
75681;BME280;64294;49.176;16.626;2023-05-07T03:04:25;99462.44;;;9.54;100.00
75681;BME280;64294;49.176;16.626;2023-05-07T03:06:50;99462.66;;;9.56;100.00
75681;BME280;64294;49.176;16.626;2023-05-07T03:09:16;99456.31;;;9.56;100.00
75681;BME280;64294;49.176;16.626;2023-05-07T03:11:41;99468.06;;;9.54;100.00
75681;BME280;64294;49.176;16.626;2023-05-07T03:14:07;99464.94;;;9.58;100.00
75681;BME280;64294;49.176;16.626;2023-05-07T03:16:32;99465.19;;;9.60;100.00
75681;BME280;64294;49.176;16.626;2023-05-07T03:18:58;99474.06;;;9.64;100.00
75681;BME280;64294;49.176;16.626;2023-05-07T03:21:23;99476.06;;;9.69;100.00
75681;BME280;64294;49.176;16.626;2023-05-07T03:23:48;99477.56;;;9.70;100.00
75681;BME280;64294;49.176;16.626;2023-05-07T03:26:14;99467.69;;;9.63;100.00
75681;BME280;64294;49.176;16.626;2023-05-07T03:28:40;99475.56;;;9.65;100.00
75681;BME280;64294;49.176;16.626;2023-05-07T03:31:05;99473.06;;;9.61;100.00
75681;BME280;64294;49.176;16.626;2023-05-07T03:33:33;99471.78;;;9.62;100.00
75681;BME280;64294;49.176;16.626;2023-05-07T03:35:59;99478.69;;;9.61;100.00
75681;BME280;64294;49.176;16.626;2023-05-07T03:38:24;99483.00;;;9.62;100.00
75681;BME280;64294;49.176;16.626;2023-05-07T03:40:49;99494.69;;;9.66;100.00
75681;BME280;64294;49.176;16.626;2023-05-07T03:43:15;99495.94;;;9.71;100.00
75681;BME280;64294;49.176;16.626;2023-05-07T03:45:40;99498.78;;;9.90;100.00
75681;BME280;64294;49.176;16.626;2023-05-07T03:48:06;99507.03;;;10.01;100.00
75681;BME280;64294;49.176;16.626;2023-05-07T03:50:31;99508.75;;;10.10;100.00
75681;BME280;64294;49.176;16.626;2023-05-07T03:52:56;99508.13;;;10.17;100.00
75681;BME280;64294;49.176;16.626;2023-05-07T03:55:22;99515.00;;;10.21;100.00
75681;BME280;64294;49.176;16.626;2023-05-07T03:57:47;99515.63;;;10.33;100.00
75681;BME280;64294;49.176;16.626;2023-05-07T04:00:13;99519.84;;;10.40;100.00
75681;BME280;64294;49.176;16.626;2023-05-07T04:02:39;99517.03;;;10.40;100.00
75681;BME280;64294;49.176;16.626;2023-05-07T04:05:04;99519.34;;;10.41;100.00
75681;BME280;64294;49.176;16.626;2023-05-07T04:07:30;99516.47;;;10.47;100.00
75681;BME280;64294;49.176;16.626;2023-05-07T04:09:55;99520.47;;;10.51;100.00
75681;BME280;64294;49.176;16.626;2023-05-07T04:12:20;99518.81;;;10.61;100.00
75681;BME280;64294;49.176;16.626;2023-05-07T04:14:46;99514.72;;;10.63;100.00
75681;BME280;64294;49.176;16.626;2023-05-07T04:17:11;99523.19;;;10.76;100.00
75681;BME280;64294;49.176;16.626;2023-05-07T04:19:37;99518.63;;;10.73;100.00
75681;BME280;64294;49.176;16.626;2023-05-07T04:22:02;99522.91;;;10.79;100.00
75681;BME280;64294;49.176;16.626;2023-05-07T04:24:31;99526.38;;;10.85;100.00
75681;BME280;64294;49.176;16.626;2023-05-07T04:26:57;99521.94;;;10.90;100.00
75681;BME280;64294;49.176;16.626;2023-05-07T04:29:23;99524.81;;;11.03;100.00
75681;BME280;64294;49.176;16.626;2023-05-07T04:31:49;99528.88;;;11.21;100.00
75681;BME280;64294;49.176;16.626;2023-05-07T04:34:15;99531.59;;;11.27;100.00
75681;BME280;64294;49.176;16.626;2023-05-07T04:36:42;99537.03;;;11.38;100.00
75681;BME280;64294;49.176;16.626;2023-05-07T04:39:07;99540.53;;;11.70;100.00
75681;BME280;64294;49.176;16.626;2023-05-07T04:41:33;99545.28;;;11.62;100.00
75681;BME280;64294;49.176;16.626;2023-05-07T04:43:58;99541.44;;;11.78;100.00
75681;BME280;64294;49.176;16.626;2023-05-07T04:46:24;99539.38;;;11.79;100.00
75681;BME280;64294;49.176;16.626;2023-05-07T04:48:50;99542.41;;;11.81;100.00
75681;BME280;64294;49.176;16.626;2023-05-07T04:51:15;99551.72;;;11.89;100.00
75681;BME280;64294;49.176;16.626;2023-05-07T04:53:41;99561.50;;;12.15;99.42
75681;BME280;64294;49.176;16.626;2023-05-07T04:56:08;99563.09;;;12.36;97.23
75681;BME280;64294;49.176;16.626;2023-05-07T04:58:33;99570.38;;;12.32;97.47
75681;BME280;64294;49.176;16.626;2023-05-07T05:00:59;99563.56;;;12.27;97.66
75681;BME280;64294;49.176;16.626;2023-05-07T05:03:25;99567.84;;;12.41;97.17
75681;BME280;64294;49.176;16.626;2023-05-07T05:05:51;99573.69;;;12.57;96.56
75681;BME280;64294;49.176;16.626;2023-05-07T05:08:17;99572.25;;;12.63;94.26
75681;BME280;64294;49.176;16.626;2023-05-07T05:10:42;99578.44;;;12.62;94.42
75681;BME280;64294;49.176;16.626;2023-05-07T05:13:08;99581.56;;;12.71;93.67
75681;BME280;64294;49.176;16.626;2023-05-07T05:15:34;99588.69;;;12.86;92.94
75681;BME280;64294;49.176;16.626;2023-05-07T05:18:00;99589.28;;;12.71;92.44
75681;BME280;64294;49.176;16.626;2023-05-07T05:20:25;99580.47;;;13.22;90.79
75681;BME280;64294;49.176;16.626;2023-05-07T05:22:51;99587.44;;;13.08;89.56
75681;BME280;64294;49.176;16.626;2023-05-07T05:25:16;99581.00;;;13.41;87.81
75681;BME280;64294;49.176;16.626;2023-05-07T05:27:44;99575.00;;;13.45;86.44
75681;BME280;64294;49.176;16.626;2023-05-07T05:30:10;99579.59;;;13.55;85.25
75681;BME280;64294;49.176;16.626;2023-05-07T05:32:36;99583.13;;;13.48;84.59
75681;BME280;64294;49.176;16.626;2023-05-07T05:35:01;99580.78;;;13.60;85.23
75681;BME280;64294;49.176;16.626;2023-05-07T05:37:27;99581.91;;;13.85;84.71
75681;BME280;64294;49.176;16.626;2023-05-07T05:39:52;99578.47;;;14.36;82.25
75681;BME280;64294;49.176;16.626;2023-05-07T05:42:19;99590.38;;;14.86;81.36
75681;BME280;64294;49.176;16.626;2023-05-07T05:44:45;99579.44;;;14.82;80.11
75681;BME280;64294;49.176;16.626;2023-05-07T05:47:10;99585.94;;;15.13;78.84
75681;BME280;64294;49.176;16.626;2023-05-07T05:49:37;99592.97;;;15.51;77.65
75681;BME280;64294;49.176;16.626;2023-05-07T05:52:02;99599.81;;;15.63;75.59
75681;BME280;64294;49.176;16.626;2023-05-07T05:54:28;99598.28;;;15.77;74.51
75681;BME280;64294;49.176;16.626;2023-05-07T05:56:53;99600.91;;;16.21;72.23
75681;BME280;64294;49.176;16.626;2023-05-07T05:59:19;99591.06;;;16.22;73.60
75681;BME280;64294;49.176;16.626;2023-05-07T06:01:44;99588.28;;;16.77;70.83
75681;BME280;64294;49.176;16.626;2023-05-07T06:04:10;99592.13;;;16.49;70.35
75681;BME280;64294;49.176;16.626;2023-05-07T06:06:35;99589.31;;;17.30;67.20
75681;BME280;64294;49.176;16.626;2023-05-07T06:09:00;99588.66;;;17.39;68.45
75681;BME280;64294;49.176;16.626;2023-05-07T06:11:26;99585.47;;;17.35;67.03
75681;BME280;64294;49.176;16.626;2023-05-07T06:13:51;99593.50;;;17.78;65.90
75681;BME280;64294;49.176;16.626;2023-05-07T06:16:17;99588.69;;;17.89;64.47
75681;BME280;64294;49.176;16.626;2023-05-07T06:18:42;99581.44;;;18.30;64.96
75681;BME280;64294;49.176;16.626;2023-05-07T06:21:08;99592.50;;;18.60;62.36
75681;BME280;64294;49.176;16.626;2023-05-07T06:23:33;99583.38;;;18.79;61.23
75681;BME280;64294;49.176;16.626;2023-05-07T06:25:58;99580.84;;;18.83;60.67
75681;BME280;64294;49.176;16.626;2023-05-07T06:28:24;99584.53;;;18.24;62.36
75681;BME280;64294;49.176;16.626;2023-05-07T06:30:49;99584.38;;;20.01;59.16
75681;BME280;64294;49.176;16.626;2023-05-07T06:33:15;99588.03;;;22.11;49.51
75681;BME280;64294;49.176;16.626;2023-05-07T06:35:41;99585.94;;;23.43;46.13
75681;BME280;64294;49.176;16.626;2023-05-07T06:38:06;99582.91;;;23.41;45.65
75681;BME280;64294;49.176;16.626;2023-05-07T06:40:31;99596.91;;;22.36;47.45
75681;BME280;64294;49.176;16.626;2023-05-07T06:42:57;99598.13;;;21.81;48.48
75681;BME280;64294;49.176;16.626;2023-05-07T06:45:22;99590.22;;;21.09;50.00
75681;BME280;64294;49.176;16.626;2023-05-07T06:47:48;99598.63;;;20.01;53.74
75681;BME280;64294;49.176;16.626;2023-05-07T06:50:14;99605.16;;;19.38;56.41
75681;BME280;64294;49.176;16.626;2023-05-07T06:52:41;99601.97;;;19.07;58.65
75681;BME280;64294;49.176;16.626;2023-05-07T06:55:07;99614.50;;;18.77;59.48
75681;BME280;64294;49.176;16.626;2023-05-07T06:57:33;99601.28;;;18.72;59.28
75681;BME280;64294;49.176;16.626;2023-05-07T06:59:58;99598.75;;;18.76;57.87
75681;BME280;64294;49.176;16.626;2023-05-07T07:02:23;99609.31;;;18.83;57.80
75681;BME280;64294;49.176;16.626;2023-05-07T07:04:49;99606.94;;;18.20;60.83
75681;BME280;64294;49.176;16.626;2023-05-07T07:07:14;99612.66;;;17.78;61.81
75681;BME280;64294;49.176;16.626;2023-05-07T07:09:40;99611.22;;;17.37;62.25
75681;BME280;64294;49.176;16.626;2023-05-07T07:12:05;99617.22;;;17.16;64.25
75681;BME280;64294;49.176;16.626;2023-05-07T07:14:31;99629.91;;;16.75;65.34
75681;BME280;64294;49.176;16.626;2023-05-07T07:16:56;99625.75;;;16.68;65.04
75681;BME280;64294;49.176;16.626;2023-05-07T07:19:21;99637.09;;;17.48;64.44
75681;BME280;64294;49.176;16.626;2023-05-07T07:21:47;99631.50;;;17.91;62.17
75681;BME280;64294;49.176;16.626;2023-05-07T07:24:14;99623.44;;;19.35;57.81
75681;BME280;64294;49.176;16.626;2023-05-07T07:26:46;99630.13;;;20.59;52.44
75681;BME280;64294;49.176;16.626;2023-05-07T07:29:11;99631.91;;;19.52;53.53
75681;BME280;64294;49.176;16.626;2023-05-07T07:31:37;99632.56;;;19.33;56.02
75681;BME280;64294;49.176;16.626;2023-05-07T07:34:02;99629.81;;;20.74;50.29
75681;BME280;64294;49.176;16.626;2023-05-07T07:36:28;99628.31;;;23.33;45.36
75681;BME280;64294;49.176;16.626;2023-05-07T07:38:54;99628.38;;;23.68;41.78
75681;BME280;64294;49.176;16.626;2023-05-07T07:41:19;99629.28;;;22.39;42.55
75681;BME280;64294;49.176;16.626;2023-05-07T07:43:44;99631.94;;;21.63;45.12
75681;BME280;64294;49.176;16.626;2023-05-07T07:46:11;99633.38;;;21.23;48.41
75681;BME280;64294;49.176;16.626;2023-05-07T07:48:37;99630.41;;;20.44;49.77
75681;BME280;64294;49.176;16.626;2023-05-07T07:51:03;99623.66;;;20.59;50.71
75681;BME280;64294;49.176;16.626;2023-05-07T07:53:28;99623.22;;;20.62;52.11
75681;BME280;64294;49.176;16.626;2023-05-07T07:55:53;99622.44;;;22.86;45.67
75681;BME280;64294;49.176;16.626;2023-05-07T07:58:19;99614.94;;;24.92;40.18
75681;BME280;64294;49.176;16.626;2023-05-07T08:00:44;99619.16;;;26.08;36.68
75681;BME280;64294;49.176;16.626;2023-05-07T08:03:10;99619.13;;;24.65;38.04
75681;BME280;64294;49.176;16.626;2023-05-07T08:05:35;99620.22;;;24.23;39.18
75681;BME280;64294;49.176;16.626;2023-05-07T08:08:01;99614.97;;;24.80;38.31
75681;BME280;64294;49.176;16.626;2023-05-07T08:10:27;99614.22;;;26.24;34.99
75681;BME280;64294;49.176;16.626;2023-05-07T08:12:52;99613.94;;;29.36;30.97
75681;BME280;64294;49.176;16.626;2023-05-07T08:15:18;99606.41;;;31.33;27.47
75681;BME280;64294;49.176;16.626;2023-05-07T08:17:43;99611.59;;;31.84;25.87
75681;BME280;64294;49.176;16.626;2023-05-07T08:20:09;99610.22;;;31.63;25.99
75681;BME280;64294;49.176;16.626;2023-05-07T08:22:35;99606.00;;;31.69;25.70
75681;BME280;64294;49.176;16.626;2023-05-07T08:25:01;99617.31;;;31.11;25.32
75681;BME280;64294;49.176;16.626;2023-05-07T08:27:26;99611.91;;;31.01;25.23
75681;BME280;64294;49.176;16.626;2023-05-07T08:29:52;99616.34;;;29.99;26.32
75681;BME280;64294;49.176;16.626;2023-05-07T08:32:17;99606.19;;;30.18;27.53
75681;BME280;64294;49.176;16.626;2023-05-07T08:34:43;99607.06;;;30.64;24.69
75681;BME280;64294;49.176;16.626;2023-05-07T08:37:08;99605.94;;;28.45;28.86
75681;BME280;64294;49.176;16.626;2023-05-07T08:39:33;99604.31;;;28.42;29.51
75681;BME280;64294;49.176;16.626;2023-05-07T08:42:00;99610.25;;;26.89;30.77
75681;BME280;64294;49.176;16.626;2023-05-07T08:44:28;99610.84;;;25.87;32.54
75681;BME280;64294;49.176;16.626;2023-05-07T08:46:58;99609.31;;;24.57;35.25
75681;BME280;64294;49.176;16.626;2023-05-07T08:49:25;99608.66;;;25.21;35.99
75681;BME280;64294;49.176;16.626;2023-05-07T08:51:50;99603.97;;;25.66;34.16
75681;BME280;64294;49.176;16.626;2023-05-07T08:54:16;99602.75;;;25.44;35.15
75681;BME280;64294;49.176;16.626;2023-05-07T08:56:43;99606.38;;;25.45;34.32
75681;BME280;64294;49.176;16.626;2023-05-07T08:59:08;99611.72;;;27.03;31.92
75681;BME280;64294;49.176;16.626;2023-05-07T09:01:33;99605.44;;;28.69;29.41
75681;BME280;64294;49.176;16.626;2023-05-07T09:04:01;99602.91;;;29.12;28.52
75681;BME280;64294;49.176;16.626;2023-05-07T09:06:26;99605.00;;;28.58;30.26
75681;BME280;64294;49.176;16.626;2023-05-07T09:08:55;99608.94;;;28.16;29.24
75681;BME280;64294;49.176;16.626;2023-05-07T09:11:21;99620.38;;;27.64;31.02
75681;BME280;64294;49.176;16.626;2023-05-07T09:13:48;99613.00;;;26.57;30.97
75681;BME280;64294;49.176;16.626;2023-05-07T09:16:14;99609.31;;;26.13;30.50
75681;BME280;64294;49.176;16.626;2023-05-07T09:18:43;99617.44;;;25.76;32.07
75681;BME280;64294;49.176;16.626;2023-05-07T09:21:15;99615.31;;;26.04;33.18
75681;BME280;64294;49.176;16.626;2023-05-07T09:23:41;99609.16;;;26.66;32.16
75681;BME280;64294;49.176;16.626;2023-05-07T09:26:06;99612.16;;;27.59;31.16
75681;BME280;64294;49.176;16.626;2023-05-07T09:28:38;99609.06;;;26.64;31.38
75681;BME280;64294;49.176;16.626;2023-05-07T09:31:04;99607.03;;;26.96;29.04
75681;BME280;64294;49.176;16.626;2023-05-07T09:33:30;99600.25;;;28.83;28.10
75681;BME280;64294;49.176;16.626;2023-05-07T09:35:55;99601.94;;;28.88;29.51
75681;BME280;64294;49.176;16.626;2023-05-07T09:38:21;99598.38;;;28.38;28.59
75681;BME280;64294;49.176;16.626;2023-05-07T09:40:47;99606.28;;;27.57;29.24
75681;BME280;64294;49.176;16.626;2023-05-07T09:43:13;99601.44;;;26.71;31.26
75681;BME280;64294;49.176;16.626;2023-05-07T09:45:39;99604.66;;;25.00;33.55
75681;BME280;64294;49.176;16.626;2023-05-07T09:48:05;99605.19;;;24.48;33.05
75681;BME280;64294;49.176;16.626;2023-05-07T09:50:36;99610.38;;;25.79;32.29
75681;BME280;64294;49.176;16.626;2023-05-07T09:53:05;99615.06;;;23.16;39.09
75681;BME280;64294;49.176;16.626;2023-05-07T09:55:32;99612.09;;;23.26;39.87
75681;BME280;64294;49.176;16.626;2023-05-07T09:57:58;99607.88;;;25.59;37.07
75681;BME280;64294;49.176;16.626;2023-05-07T10:00:25;99613.72;;;25.34;37.36
75681;BME280;64294;49.176;16.626;2023-05-07T10:02:52;99618.41;;;24.65;37.81
75681;BME280;64294;49.176;16.626;2023-05-07T10:05:19;99619.88;;;23.59;38.37
75681;BME280;64294;49.176;16.626;2023-05-07T10:07:48;99613.81;;;22.53;41.40
75681;BME280;64294;49.176;16.626;2023-05-07T10:10:14;99603.91;;;23.44;41.39
75681;BME280;64294;49.176;16.626;2023-05-07T10:12:43;99606.75;;;23.44;39.41
75681;BME280;64294;49.176;16.626;2023-05-07T10:15:12;99601.63;;;22.64;41.77
75681;BME280;64294;49.176;16.626;2023-05-07T10:17:39;99611.84;;;22.13;40.45
75681;BME280;64294;49.176;16.626;2023-05-07T10:20:05;99610.41;;;21.62;42.73
75681;BME280;64294;49.176;16.626;2023-05-07T10:22:51;99612.22;;;21.88;43.54
75681;BME280;64294;49.176;16.626;2023-05-07T10:25:22;99604.31;;;22.29;42.83
75681;BME280;64294;49.176;16.626;2023-05-07T10:27:50;99620.28;;;21.70;43.95
75681;BME280;64294;49.176;16.626;2023-05-07T10:32:53;99616.44;;;20.77;45.64
75681;BME280;64294;49.176;16.626;2023-05-07T10:35:23;99622.25;;;20.11;47.32
75681;BME280;64294;49.176;16.626;2023-05-07T10:37:50;99612.34;;;19.39;50.65
75681;BME280;64294;49.176;16.626;2023-05-07T10:40:16;99600.25;;;19.21;53.29
75681;BME280;64294;49.176;16.626;2023-05-07T10:42:59;99607.59;;;19.51;50.55
75681;BME280;64294;49.176;16.626;2023-05-07T10:45:26;99606.28;;;21.43;47.53
75681;BME280;64294;49.176;16.626;2023-05-07T10:51:18;99619.88;;;20.37;48.42
75681;BME280;64294;49.176;16.626;2023-05-07T10:53:44;99615.06;;;20.30;48.09
75681;BME280;64294;49.176;16.626;2023-05-07T10:58:44;99629.63;;;18.10;54.59
75681;BME280;64294;49.176;16.626;2023-05-07T11:01:10;99616.41;;;20.29;50.28
75681;BME280;64294;49.176;16.626;2023-05-07T11:04:13;99626.28;;;22.15;45.69
75681;BME280;64294;49.176;16.626;2023-05-07T11:06:39;99625.28;;;20.33;47.37
75681;BME280;64294;49.176;16.626;2023-05-07T11:09:05;99626.81;;;19.24;49.66
75681;BME280;64294;49.176;16.626;2023-05-07T11:11:49;99625.13;;;19.48;51.49
75681;BME280;64294;49.176;16.626;2023-05-07T11:17:08;99634.84;;;21.43;45.48
75681;BME280;64294;49.176;16.626;2023-05-07T11:19:51;99638.47;;;20.09;46.85
75681;BME280;64294;49.176;16.626;2023-05-07T11:22:47;99633.84;;;21.70;44.96
75681;BME280;64294;49.176;16.626;2023-05-07T11:25:17;99641.25;;;20.55;48.25
75681;BME280;64294;49.176;16.626;2023-05-07T11:27:44;99637.34;;;20.60;46.54
75681;BME280;64294;49.176;16.626;2023-05-07T11:30:10;99639.75;;;19.08;49.02
75681;BME280;64294;49.176;16.626;2023-05-07T11:32:36;99645.13;;;19.30;50.30
75681;BME280;64294;49.176;16.626;2023-05-07T11:35:02;99651.63;;;18.10;51.99
75681;BME280;64294;49.176;16.626;2023-05-07T11:37:28;99649.84;;;17.00;56.63
75681;BME280;64294;49.176;16.626;2023-05-07T11:40:04;99650.09;;;17.26;54.52
75681;BME280;64294;49.176;16.626;2023-05-07T11:42:36;99652.03;;;18.06;53.89
75681;BME280;64294;49.176;16.626;2023-05-07T11:45:06;99647.63;;;19.44;51.08
75681;BME280;64294;49.176;16.626;2023-05-07T11:47:31;99654.81;;;20.08;47.30
75681;BME280;64294;49.176;16.626;2023-05-07T11:50:02;99660.59;;;18.24;52.77
75681;BME280;64294;49.176;16.626;2023-05-07T11:52:28;99670.72;;;17.92;54.55
75681;BME280;64294;49.176;16.626;2023-05-07T11:54:55;99661.81;;;19.34;51.48
75681;BME280;64294;49.176;16.626;2023-05-07T11:57:22;99660.34;;;18.29;51.43
75681;BME280;64294;49.176;16.626;2023-05-07T11:59:47;99674.81;;;18.66;51.71
75681;BME280;64294;49.176;16.626;2023-05-07T12:02:17;99674.19;;;19.19;49.62
75681;BME280;64294;49.176;16.626;2023-05-07T12:04:43;99685.50;;;19.10;51.05
75681;BME280;64294;49.176;16.626;2023-05-07T12:07:12;99683.03;;;18.37;51.04
75681;BME280;64294;49.176;16.626;2023-05-07T12:09:39;99678.00;;;18.70;51.72
75681;BME280;64294;49.176;16.626;2023-05-07T12:12:05;99689.06;;;17.99;52.00
75681;BME280;64294;49.176;16.626;2023-05-07T12:14:30;99672.81;;;17.92;53.78
75681;BME280;64294;49.176;16.626;2023-05-07T12:16:56;99685.78;;;17.05;54.39
75681;BME280;64294;49.176;16.626;2023-05-07T12:19:22;99678.97;;;17.48;53.68
75681;BME280;64294;49.176;16.626;2023-05-07T12:21:48;99691.06;;;17.81;54.56
75681;BME280;64294;49.176;16.626;2023-05-07T12:24:16;99681.97;;;18.07;53.22
75681;BME280;64294;49.176;16.626;2023-05-07T12:26:43;99691.94;;;17.26;54.51
75681;BME280;64294;49.176;16.626;2023-05-07T12:29:08;99684.94;;;17.27;55.24
75681;BME280;64294;49.176;16.626;2023-05-07T12:31:34;99684.19;;;16.71;55.92
75681;BME280;64294;49.176;16.626;2023-05-07T12:33:59;99688.94;;;16.76;56.01
75681;BME280;64294;49.176;16.626;2023-05-07T12:36:25;99685.72;;;17.20;55.56
75681;BME280;64294;49.176;16.626;2023-05-07T12:38:51;99688.22;;;16.38;56.90
75681;BME280;64294;49.176;16.626;2023-05-07T12:41:16;99689.94;;;16.41;56.40
75681;BME280;64294;49.176;16.626;2023-05-07T12:43:45;99688.44;;;16.01;57.83
75681;BME280;64294;49.176;16.626;2023-05-07T12:46:11;99685.56;;;15.79;58.88
75681;BME280;64294;49.176;16.626;2023-05-07T12:48:43;99697.25;;;15.60;59.21
75681;BME280;64294;49.176;16.626;2023-05-07T12:51:10;99693.84;;;15.61;59.62
75681;BME280;64294;49.176;16.626;2023-05-07T12:53:42;99696.53;;;15.67;58.50
75681;BME280;64294;49.176;16.626;2023-05-07T12:56:08;99716.56;;;14.81;60.20